createdAt,value
2022-11-24T00:01:18.118Z,27.50
2022-11-24T00:03:51.818Z,26.10
2022-11-24T00:06:18.931Z,23.27
2022-11-24T00:08:46.779Z,22.25
2022-11-24T00:11:18.015Z,23.27
2022-11-24T00:13:45.773Z,19.85
2022-11-24T00:16:20.797Z,22.58
2022-11-24T00:18:50.442Z,22.25
2022-11-24T00:21:19.145Z,25.33
2022-11-24T00:23:48.770Z,21.92
2022-11-24T00:26:22.212Z,23.10
2022-11-24T00:28:53.951Z,23.30
2022-11-24T00:31:25.184Z,24.63
2022-11-24T00:33:57.282Z,24.83
2022-11-24T00:36:27.438Z,23.80
2022-11-24T00:39:01.161Z,24.60
2022-11-24T00:41:29.800Z,22.58
2022-11-24T00:43:57.619Z,23.58
2022-11-24T00:46:26.175Z,21.85
2022-11-24T00:48:54.017Z,24.25
2022-11-24T00:51:27.092Z,22.27
2022-11-24T00:53:56.397Z,20.10
2022-11-24T00:56:24.626Z,23.33
2022-11-24T00:58:52.232Z,23.80
2022-11-24T01:01:24.491Z,26.08
2022-11-24T01:03:52.590Z,23.55
2022-11-24T01:06:26.103Z,26.00
2022-11-24T01:08:53.350Z,26.80
2022-11-24T01:11:28.139Z,27.95
2022-11-24T01:13:59.340Z,21.90
2022-11-24T01:16:33.960Z,22.77
2022-11-24T01:19:03.813Z,21.65
2022-11-24T01:21:30.864Z,24.40
2022-11-24T01:23:57.913Z,27.33
2022-11-24T01:26:24.947Z,26.63
2022-11-24T01:28:57.249Z,23.27
2022-11-24T01:31:26.544Z,22.73
2022-11-24T01:33:54.641Z,27.75
2022-11-24T01:36:22.908Z,23.70
2022-11-24T01:38:50.296Z,23.92
2022-11-24T01:41:20.878Z,25.10
2022-11-24T01:43:48.719Z,27.40
2022-11-24T01:46:31.634Z,29.55
2022-11-24T01:49:22.733Z,22.73
2022-11-24T01:51:58.436Z,30.77
2022-11-24T01:54:31.943Z,26.63
2022-11-24T01:57:08.097Z,27.25
2022-11-24T01:59:35.238Z,24.25
2022-11-24T02:02:02.441Z,23.90
2022-11-24T02:04:33.311Z,24.50
2022-11-24T02:07:03.096Z,25.30
2022-11-24T02:09:56.255Z,19.40
2022-11-24T02:12:26.876Z,22.88
2022-11-24T02:14:55.724Z,20.70
2022-11-24T02:17:24.223Z,26.63
2022-11-24T02:20:08.159Z,28.92
2022-11-24T02:22:41.698Z,29.00
2022-11-24T02:25:28.201Z,26.42
2022-11-24T02:27:58.363Z,27.90
2022-11-24T02:30:25.498Z,24.60
2022-11-24T02:32:52.810Z,23.05
2022-11-24T02:35:20.432Z,24.17
2022-11-24T02:37:47.594Z,27.33
2022-11-24T02:40:25.427Z,28.75
2022-11-24T02:43:05.350Z,36.28
2022-11-24T02:45:32.489Z,29.70
2022-11-24T02:47:59.649Z,36.08
2022-11-24T02:50:26.775Z,35.67
2022-11-24T02:52:53.792Z,32.05
2022-11-24T02:55:20.817Z,29.77
2022-11-24T02:57:47.964Z,32.00
2022-11-24T03:00:17.643Z,30.38
2022-11-24T03:02:44.800Z,31.83
2022-11-24T03:05:12.646Z,34.97
2022-11-24T03:07:39.763Z,40.55
2022-11-24T03:10:07.623Z,31.58
2022-11-24T03:12:34.774Z,28.88
2022-11-24T03:15:03.339Z,31.88
2022-11-24T03:17:30.826Z,31.67
2022-11-24T03:20:02.989Z,30.15
2022-11-24T03:22:31.895Z,35.05
2022-11-24T03:24:59.351Z,30.45
2022-11-24T03:27:26.404Z,29.67
2022-11-24T03:29:53.473Z,30.30
2022-11-24T03:32:20.969Z,33.65
2022-11-24T03:34:48.179Z,31.58
2022-11-24T03:37:15.536Z,28.52
2022-11-24T03:39:42.661Z,30.63
2022-11-24T03:42:09.634Z,21.33
2022-11-24T03:44:36.881Z,25.55
2022-11-24T03:47:03.971Z,35.45
2022-11-24T03:49:31.101Z,33.00
2022-11-24T03:52:00.611Z,28.58
2022-11-24T03:54:29.667Z,29.30
2022-11-24T03:56:56.889Z,30.10
2022-11-24T03:59:23.972Z,26.75
2022-11-24T04:01:51.582Z,27.85
2022-11-24T04:04:18.756Z,29.67
2022-11-24T04:06:46.114Z,29.02
2022-11-24T04:09:13.159Z,31.60
2022-11-24T04:11:58.868Z,34.33
2022-11-24T04:14:26.007Z,28.23
2022-11-24T04:16:52.999Z,28.17
2022-11-24T04:19:19.929Z,30.25
2022-11-24T04:21:46.954Z,30.40
2022-11-24T04:24:14.796Z,27.02
2022-11-24T04:26:41.851Z,29.80
2022-11-24T04:29:10.051Z,28.90
2022-11-24T04:31:37.556Z,29.83
2022-11-24T04:34:04.845Z,30.95
2022-11-24T04:36:31.898Z,32.13
2022-11-24T04:39:19.405Z,26.77
2022-11-24T04:41:48.323Z,23.63
2022-11-24T04:44:15.445Z,34.10
2022-11-24T04:46:42.519Z,28.55
2022-11-24T04:49:12.395Z,28.58
2022-11-24T04:51:40.613Z,33.25
2022-11-24T04:54:10.427Z,30.73
2022-11-24T04:56:37.484Z,31.88
2022-11-24T04:59:08.470Z,29.17
2022-11-24T05:01:36.658Z,30.52
2022-11-24T05:04:04.120Z,34.97
2022-11-24T05:06:33.204Z,30.02
2022-11-24T05:09:01.058Z,28.75
2022-11-24T05:11:28.819Z,32.03
2022-11-24T05:13:56.243Z,32.85
2022-11-24T05:16:23.355Z,27.75
2022-11-24T05:18:50.484Z,30.25
2022-11-24T05:21:17.649Z,27.95
2022-11-24T05:23:45.195Z,28.15
2022-11-24T05:26:12.537Z,30.25
2022-11-24T05:28:39.626Z,26.10
2022-11-24T05:31:07.096Z,29.08
2022-11-24T05:33:34.159Z,29.88
2022-11-24T05:36:04.547Z,30.98
2022-11-24T05:38:33.081Z,28.70
2022-11-24T05:41:05.594Z,26.70
2022-11-24T05:43:32.686Z,30.17
2022-11-24T05:46:02.793Z,25.77
2022-11-24T05:48:29.760Z,30.35
2022-11-24T05:50:58.758Z,28.95
2022-11-24T05:53:27.201Z,28.60
2022-11-24T05:55:54.343Z,34.30
2022-11-24T05:58:21.420Z,32.53
2022-11-24T06:00:48.663Z,27.38
2022-11-24T06:03:16.102Z,28.90
2022-11-24T06:05:47.293Z,29.85
2022-11-24T06:08:14.926Z,26.67
2022-11-24T06:10:42.033Z,27.30
2022-11-24T06:13:09.267Z,33.10
2022-11-24T06:15:37.853Z,30.70
2022-11-24T06:18:05.083Z,29.73
2022-11-24T06:20:33.030Z,28.13
2022-11-24T06:23:01.390Z,28.70
2022-11-24T06:25:31.057Z,27.95
2022-11-24T06:27:58.114Z,26.50
2022-11-24T06:30:25.912Z,32.70
2022-11-24T06:32:56.240Z,32.55
2022-11-24T06:35:23.326Z,31.92
2022-11-24T06:37:50.723Z,34.47
2022-11-24T06:40:17.966Z,27.38
2022-11-24T06:42:51.463Z,29.95
2022-11-24T06:45:19.068Z,29.67
2022-11-24T06:47:46.311Z,30.67
2022-11-24T06:50:13.442Z,27.00
2022-11-24T06:52:40.475Z,25.33
2022-11-24T06:55:08.324Z,24.73
2022-11-24T06:57:35.411Z,26.33
2022-11-24T07:00:08.022Z,28.00
2022-11-24T07:02:35.596Z,30.58
2022-11-24T07:05:02.790Z,27.60
2022-11-24T07:07:30.481Z,25.08
2022-11-24T07:10:07.626Z,22.55
2022-11-24T07:12:35.384Z,25.00
2022-11-24T07:15:02.464Z,24.73
2022-11-24T07:17:29.584Z,30.02
2022-11-24T07:19:56.739Z,26.55
2022-11-24T07:22:23.857Z,29.67
2022-11-24T07:24:50.829Z,29.35
2022-11-24T07:27:18.002Z,39.30
2022-11-24T07:29:45.099Z,30.27
2022-11-24T07:32:15.316Z,37.78
2022-11-24T07:34:42.351Z,33.50
2022-11-24T07:37:09.517Z,32.55
2022-11-24T07:39:36.587Z,32.13
2022-11-24T07:42:05.284Z,34.35
2022-11-24T07:44:35.108Z,34.40
2022-11-24T07:47:03.076Z,38.95
2022-11-24T07:49:30.240Z,34.63
2022-11-24T07:51:57.430Z,34.28
2022-11-24T07:54:24.548Z,34.05
2022-11-24T07:56:51.667Z,29.75
2022-11-24T07:59:19.045Z,25.98
2022-11-24T08:01:46.288Z,27.58
2022-11-24T08:04:13.571Z,25.58
2022-11-24T08:06:47.135Z,28.73
2022-11-24T08:09:14.626Z,24.75
2022-11-24T08:11:41.637Z,24.23
2022-11-24T08:14:08.833Z,30.60
2022-11-24T08:16:36.392Z,28.20
2022-11-24T08:19:03.515Z,25.48
2022-11-24T08:21:30.706Z,28.55
2022-11-24T08:23:58.419Z,28.05
2022-11-24T08:26:26.532Z,29.70
2022-11-24T08:28:57.620Z,27.92
2022-11-24T08:31:27.541Z,25.88
2022-11-24T08:33:56.112Z,25.55
2022-11-24T08:36:23.425Z,21.23
2022-11-24T08:38:56.543Z,24.23
2022-11-24T08:41:24.965Z,24.17
2022-11-24T08:43:53.818Z,23.95
2022-11-24T08:46:22.403Z,22.08
2022-11-24T08:48:54.443Z,21.23
2022-11-24T08:51:25.107Z,22.20
2022-11-24T08:54:01.953Z,21.42
2022-11-24T08:56:32.497Z,17.70
2022-11-24T08:59:02.650Z,20.17
2022-11-24T09:01:30.139Z,19.83
2022-11-24T09:03:57.875Z,17.25
2022-11-24T09:06:30.940Z,19.92
2022-11-24T09:09:01.914Z,16.92
2022-11-24T09:11:30.981Z,18.90
2022-11-24T09:13:58.221Z,19.42
2022-11-24T09:16:29.069Z,21.30
2022-11-24T09:19:08.207Z,18.50
2022-11-24T09:21:38.747Z,21.17
2022-11-24T09:24:11.147Z,25.95
2022-11-24T09:26:41.869Z,16.48
2022-11-24T09:29:12.626Z,18.83
2022-11-24T09:31:40.090Z,16.85
2022-11-24T09:34:11.529Z,17.40
2022-11-24T09:36:39.913Z,17.23
2022-11-24T09:39:07.371Z,18.58
2022-11-24T09:42:05.157Z,20.25
2022-11-24T09:44:54.705Z,16.02
2022-11-24T09:47:37.934Z,17.58
2022-11-24T09:50:24.687Z,20.20
2022-11-24T09:53:10.630Z,20.35
2022-11-24T09:55:50.167Z,16.92
2022-11-24T09:58:42.721Z,16.48
2022-11-24T10:01:20.792Z,14.95
2022-11-24T10:03:52.137Z,17.92
2022-11-24T10:06:44.783Z,14.00
2022-11-24T10:09:27.193Z,13.70
2022-11-24T10:12:07.110Z,11.95
2022-11-24T10:15:16.645Z,15.13
2022-11-24T10:18:21.089Z,14.30
2022-11-24T10:21:50.975Z,11.87
2022-11-24T10:24:38.712Z,13.27
2022-11-24T10:27:45.025Z,11.30
2022-11-24T10:30:21.647Z,11.32
2022-11-24T10:32:57.866Z,13.63
2022-11-24T10:36:03.976Z,13.98
2022-11-24T10:38:41.545Z,13.23
2022-11-24T10:41:18.143Z,13.97
2022-11-24T10:43:45.370Z,13.05
2022-11-24T10:46:20.271Z,12.00
2022-11-24T10:48:53.389Z,14.32
2022-11-24T10:51:48.897Z,12.90
2022-11-24T10:54:21.329Z,12.82
2022-11-24T10:56:52.239Z,15.30
2022-11-24T10:59:33.497Z,15.18
2022-11-24T11:02:01.475Z,12.90
2022-11-24T11:04:35.011Z,15.32
2022-11-24T11:07:28.694Z,14.18
2022-11-24T11:10:23.578Z,15.70
2022-11-24T11:15:30.308Z,11.35
2022-11-24T11:17:59.750Z,12.93
2022-11-24T11:20:34.483Z,12.10
2022-11-24T11:23:15.427Z,14.10
2022-11-24T11:25:43.847Z,17.10
2022-11-24T11:28:23.766Z,16.23
2022-11-24T11:31:20.653Z,12.50
2022-11-24T11:34:35.478Z,11.43
2022-11-24T11:37:04.906Z,13.13
2022-11-24T11:39:37.386Z,13.02
2022-11-24T11:43:00.859Z,15.40
2022-11-24T11:45:30.201Z,13.65
2022-11-24T11:48:42.298Z,13.02
2022-11-24T11:51:42.552Z,12.65
2022-11-24T11:54:30.832Z,10.90
2022-11-24T11:57:32.631Z,15.65
2022-11-24T12:00:18.634Z,11.57
2022-11-24T12:03:25.515Z,11.75
2022-11-24T12:06:11.423Z,12.35
2022-11-24T12:09:21.736Z,12.77
2022-11-24T12:12:20.502Z,12.60
2022-11-24T12:15:52.210Z,10.98
2022-11-24T12:18:57.567Z,12.95
2022-11-24T12:21:35.833Z,12.60
2022-11-24T12:24:33.973Z,13.13
2022-11-24T12:27:31.825Z,11.70
2022-11-24T12:30:13.864Z,13.52
2022-11-24T12:33:20.776Z,11.63
2022-11-24T12:36:04.020Z,13.02
2022-11-24T12:38:50.770Z,14.43
2022-11-24T12:42:11.281Z,10.23
2022-11-24T12:45:13.987Z,11.77
2022-11-24T12:48:13.036Z,10.90
2022-11-24T12:50:44.582Z,14.13
2022-11-24T12:53:17.765Z,13.70
2022-11-24T12:55:46.414Z,12.07
2022-11-24T12:58:41.540Z,12.23
2022-11-24T13:01:36.383Z,17.40
2022-11-24T13:06:53.666Z,14.05
2022-11-24T13:09:21.307Z,13.15
2022-11-24T13:11:51.596Z,14.77
2022-11-24T13:14:23.534Z,13.15
2022-11-24T13:17:28.746Z,12.90
2022-11-24T13:19:48.297Z,15.90
2022-11-24T13:22:24.533Z,13.48
2022-11-24T13:25:15.302Z,10.73
2022-11-24T13:27:46.217Z,11.07
2022-11-24T13:30:35.951Z,12.02
2022-11-24T13:33:16.429Z,13.68
2022-11-24T13:36:03.030Z,10.32
2022-11-24T13:38:53.621Z,11.55
2022-11-24T13:45:45.037Z,10.90
2022-11-24T13:48:22.480Z,11.90
2022-11-24T13:50:50.534Z,10.30
2022-11-24T13:53:43.940Z,10.57
2022-11-24T13:56:14.333Z,10.48
2022-11-24T13:58:56.541Z,11.52
2022-11-24T14:01:37.328Z,11.60
2022-11-24T14:04:32.265Z,11.98
2022-11-24T14:07:09.067Z,10.20
2022-11-24T14:09:46.639Z,10.00
2022-11-24T14:12:26.181Z,12.30
2022-11-24T14:14:57.584Z,11.38
2022-11-24T14:17:28.791Z,12.80
2022-11-24T14:19:58.313Z,13.18
2022-11-24T14:22:39.788Z,11.05
2022-11-24T14:25:30.755Z,8.85
2022-11-24T14:28:00.717Z,10.13
2022-11-24T14:30:28.547Z,14.27
2022-11-24T14:33:02.290Z,10.48
2022-11-24T14:35:35.720Z,9.65
2022-11-24T14:38:06.117Z,9.60
2022-11-24T14:40:55.267Z,11.55
2022-11-24T14:43:26.470Z,11.48
2022-11-24T14:46:05.185Z,11.00
2022-11-24T14:48:48.136Z,11.07
2022-11-24T14:51:22.148Z,11.07
2022-11-24T14:53:53.346Z,10.15
2022-11-24T14:56:24.505Z,8.15
2022-11-24T14:58:53.476Z,9.30
2022-11-24T15:01:27.536Z,10.13
2022-11-24T15:05:04.264Z,9.93
2022-11-24T15:07:29.322Z,10.45
2022-11-24T15:10:00.942Z,11.83
2022-11-24T15:12:42.454Z,12.77
2022-11-24T15:15:16.018Z,9.88
2022-11-24T15:18:01.086Z,8.40
2022-11-24T15:20:37.481Z,9.35
2022-11-24T15:23:34.252Z,14.07
2022-11-24T15:26:01.795Z,9.43
2022-11-24T15:28:31.226Z,8.98
2022-11-24T15:31:10.067Z,11.60
2022-11-24T15:33:38.422Z,12.30
2022-11-24T15:36:06.500Z,11.88
2022-11-24T15:38:35.391Z,15.90
2022-11-24T15:41:05.792Z,13.82
2022-11-24T15:43:41.282Z,13.60
2022-11-24T15:46:10.082Z,18.52
2022-11-24T15:48:38.051Z,13.20
2022-11-24T15:51:15.236Z,13.32
2022-11-24T15:53:52.472Z,9.63
2022-11-24T15:56:34.226Z,16.00
2022-11-24T15:59:03.251Z,13.98
2022-11-24T16:01:34.654Z,17.50
2022-11-24T16:04:03.000Z,16.83
2022-11-24T16:06:30.861Z,13.23
2022-11-24T16:09:54.052Z,14.43
2022-11-24T16:12:21.592Z,16.52
2022-11-24T16:14:49.211Z,16.33
2022-11-24T16:17:16.688Z,17.33
2022-11-24T16:19:44.382Z,12.15
2022-11-24T16:22:11.870Z,15.80
2022-11-24T16:24:39.792Z,19.20
2022-11-24T16:27:07.171Z,19.10
2022-11-24T16:29:38.406Z,23.45
2022-11-24T16:32:06.957Z,20.10
2022-11-24T16:34:34.877Z,22.48
2022-11-24T16:37:02.491Z,27.30
2022-11-24T16:39:30.327Z,32.83
2022-11-24T16:41:57.877Z,26.17
2022-11-24T16:44:25.387Z,31.77
2022-11-24T16:46:53.958Z,39.20
2022-11-24T16:49:21.359Z,32.88
2022-11-24T16:51:48.938Z,35.83
2022-11-24T16:54:16.377Z,39.17
2022-11-24T16:56:45.087Z,30.35
2022-11-24T16:59:13.358Z,35.42
2022-11-24T17:01:41.234Z,37.85
2022-11-24T17:04:12.628Z,32.72
2022-11-24T17:06:40.806Z,32.80
2022-11-24T17:09:08.416Z,34.78
2022-11-24T17:11:35.903Z,34.92
2022-11-24T17:14:03.936Z,39.42
2022-11-24T17:16:32.048Z,43.38
2022-11-24T17:19:00.197Z,42.17
2022-11-24T17:21:28.959Z,39.28
2022-11-24T17:23:59.877Z,34.78
2022-11-24T17:26:28.239Z,37.00
2022-11-24T17:28:56.298Z,36.42
2022-11-24T17:31:29.919Z,35.47
2022-11-24T17:33:59.793Z,34.40
2022-11-24T17:36:28.737Z,32.30
2022-11-24T17:38:56.522Z,32.72
2022-11-24T17:41:24.079Z,31.80
2022-11-24T17:43:53.476Z,40.00
2022-11-24T17:46:21.540Z,34.63
2022-11-24T17:48:49.774Z,33.88
2022-11-24T17:51:21.242Z,31.33
2022-11-24T17:53:51.202Z,33.45
2022-11-24T17:56:23.750Z,37.95
2022-11-24T17:58:57.477Z,45.05
2022-11-24T18:01:26.832Z,48.55
2022-11-24T18:03:54.888Z,69.03
2022-11-24T18:06:26.207Z,59.75
2022-11-24T18:08:56.047Z,44.88
2022-11-24T18:11:31.428Z,47.83
2022-11-24T18:14:03.611Z,35.78
2022-11-24T18:16:34.519Z,34.63
2022-11-24T18:19:09.916Z,36.90
2022-11-24T18:21:40.315Z,32.28
2022-11-24T18:24:10.251Z,35.08
2022-11-24T18:26:39.858Z,31.83
2022-11-24T18:29:09.847Z,42.53
2022-11-24T18:31:39.270Z,37.08
2022-11-24T18:34:07.640Z,37.75
2022-11-24T18:36:35.307Z,36.50
2022-11-24T18:39:06.293Z,41.40
2022-11-24T18:41:34.288Z,34.13
2022-11-24T18:44:08.028Z,36.72
2022-11-24T18:46:38.428Z,54.72
2022-11-24T18:49:07.498Z,38.65
2022-11-24T18:51:35.072Z,49.15
2022-11-24T18:54:04.191Z,43.70
2022-11-24T18:56:31.876Z,38.90
2022-11-24T18:58:59.940Z,52.35
2022-11-24T19:01:29.248Z,58.80
2022-11-24T19:04:00.674Z,62.13
2022-11-24T19:06:35.319Z,66.35
2022-11-24T19:09:07.848Z,64.90
2022-11-24T19:11:39.245Z,76.95
2022-11-24T19:14:11.342Z,60.92
2022-11-24T19:16:39.717Z,68.38
2022-11-24T19:19:12.780Z,76.65
2022-11-24T19:21:41.370Z,55.83
2022-11-24T19:24:11.366Z,54.67
2022-11-24T19:26:39.830Z,65.93
2022-11-24T19:29:10.878Z,62.80
2022-11-24T19:31:44.060Z,70.05
2022-11-24T19:34:11.642Z,61.40
2022-11-24T19:36:40.671Z,71.82
2022-11-24T19:39:16.195Z,64.45
2022-11-24T19:41:44.153Z,66.55
2022-11-24T19:44:13.164Z,66.05
2022-11-24T19:46:41.085Z,72.05
2022-11-24T19:49:10.014Z,62.38
2022-11-24T19:51:40.038Z,65.90
2022-11-24T19:54:14.736Z,62.60
2022-11-24T19:56:42.307Z,65.88
2022-11-24T19:59:10.226Z,78.78
2022-11-24T20:01:40.948Z,70.57
2022-11-24T20:04:13.790Z,74.72
2022-11-24T20:06:46.017Z,85.25
2022-11-24T20:09:18.904Z,81.50
2022-11-24T20:11:48.752Z,87.03
2022-11-24T20:14:19.471Z,76.97
2022-11-24T20:16:48.077Z,68.63
2022-11-24T20:19:18.107Z,72.13
2022-11-24T20:21:47.950Z,65.28
2022-11-24T20:24:26.072Z,56.53
2022-11-24T20:26:59.347Z,58.70
2022-11-24T20:29:29.745Z,54.70
2022-11-24T20:31:57.410Z,53.67
2022-11-24T20:34:26.626Z,50.88
2022-11-24T20:36:54.228Z,51.45
2022-11-24T20:39:26.653Z,53.55
2022-11-24T20:41:55.450Z,52.63
2022-11-24T20:44:25.068Z,47.53
2022-11-24T20:46:57.185Z,50.00
2022-11-24T20:49:25.997Z,57.00
2022-11-24T20:51:57.591Z,52.53
2022-11-24T20:54:25.305Z,47.45
2022-11-24T20:56:52.886Z,55.42
2022-11-24T20:59:23.888Z,59.60
2022-11-24T21:01:55.529Z,63.92
2022-11-24T21:04:26.402Z,63.53
2022-11-24T21:06:54.918Z,61.63
2022-11-24T21:09:23.047Z,61.72
2022-11-24T21:11:50.806Z,61.28
2022-11-24T21:14:18.249Z,67.45
2022-11-24T21:16:45.797Z,64.72
2022-11-24T21:19:17.778Z,56.47
2022-11-24T21:21:51.009Z,61.00
2022-11-24T21:24:21.925Z,53.90
2022-11-24T21:26:52.924Z,55.50
2022-11-24T21:29:23.738Z,49.08
2022-11-24T21:31:52.168Z,52.65
2022-11-24T21:34:20.302Z,53.08
2022-11-24T21:36:48.349Z,49.47
2022-11-24T21:39:16.881Z,47.75
2022-11-24T21:41:51.526Z,44.40
2022-11-24T21:44:19.088Z,37.53
2022-11-24T21:46:55.694Z,37.75
2022-11-24T21:49:24.143Z,46.05
2022-11-24T21:51:55.830Z,42.53
2022-11-24T21:54:24.142Z,40.78
2022-11-24T21:56:54.143Z,38.38
2022-11-24T21:59:22.558Z,43.30
2022-11-24T22:02:13.402Z,41.83
2022-11-24T22:04:41.252Z,40.45
2022-11-24T22:07:09.909Z,39.58
2022-11-24T22:09:37.322Z,38.25
2022-11-24T22:12:05.026Z,47.67
2022-11-24T22:14:36.186Z,47.05
2022-11-24T22:17:10.701Z,52.22
2022-11-24T22:19:38.262Z,45.10
2022-11-24T22:22:05.843Z,50.15
2022-11-24T22:24:41.329Z,40.65
2022-11-24T22:27:12.896Z,45.05
2022-11-24T22:29:40.273Z,49.10
2022-11-24T22:32:10.237Z,46.97
2022-11-24T22:34:37.890Z,41.13
2022-11-24T22:37:06.030Z,30.90
2022-11-24T22:39:33.546Z,37.42
2022-11-24T22:42:01.214Z,49.33
2022-11-24T22:44:29.152Z,54.60
2022-11-24T22:46:57.131Z,42.95
2022-11-24T22:49:24.621Z,49.38
2022-11-24T22:51:52.211Z,44.08
2022-11-24T22:54:20.012Z,39.70
2022-11-24T22:56:47.661Z,41.72
2022-11-24T22:59:15.181Z,38.47
2022-11-24T23:01:42.781Z,38.00
2022-11-24T23:04:10.651Z,40.78
2022-11-24T23:06:38.568Z,38.13
2022-11-24T23:09:07.027Z,37.15
2022-11-24T23:11:41.907Z,40.55
2022-11-24T23:14:15.633Z,44.47
2022-11-24T23:16:44.617Z,42.88
2022-11-24T23:19:12.631Z,34.75
2022-11-24T23:21:40.486Z,40.22
2022-11-24T23:24:09.956Z,32.95
2022-11-24T23:26:41.038Z,36.17
2022-11-24T23:29:10.991Z,38.55
2022-11-24T23:31:40.321Z,37.78
2022-11-24T23:34:08.679Z,39.80
2022-11-24T23:36:36.516Z,39.10
2022-11-24T23:39:07.237Z,33.92
2022-11-24T23:41:35.485Z,36.78
2022-11-24T23:44:03.235Z,36.47
2022-11-24T23:46:31.275Z,33.75
2022-11-24T23:48:59.440Z,30.92
2022-11-24T23:51:30.427Z,36.83
2022-11-24T23:54:00.642Z,35.03
2022-11-24T23:56:33.146Z,31.38
2022-11-24T23:59:05.438Z,32.85
